Weather observations for the past three days for
Pearson Airfield
Metric (Imperial)
Date Time (pdt) Wind (kph) Vis. (km) Weather Sky Cond. Temperature (ºC) Relative Humidity Wind Chill (°C) Heat Index (°C) Pressure Precipitation (cm)
Air Dwpt 6 hour altimeter (cm) sea level (mb) 1 hr 3 hr 6 hr
Max. Min.
07 12:53 Calm 16.09 Fair CLR 16.1 6.7 54% 76.53 1020.2
07 11:53 Vrbl 11 16.09 Fair CLR 15 6.7 58% 76.58 1020.9
07 10:53 SE 6 16.09 Fair CLR 14.4 6.1 14.4 10.6 58% 76.61 1021.3
07 09:53 W 7 16.09 Mostly Cloudy BKN037 12.8 6.1 64% 76.63 1021.6
07 08:53 NW 7 16.09 Overcast OVC034 11.7 5 64% 76.63 1021.8
07 06:53 NW 7 16.09 Overcast OVC036 11.1 5.6 69% 76.61 1021.4
07 05:53 N 6 16.09 Overcast OVC032 11.1 5.6 69% 76.61 1021.2
07 04:53 NW 7 16.09 Overcast OVC036 11.1 5.6 13.3 11.1 69% 76.61 1021.4
07 03:53 NW 7 16.09 Overcast OVC038 11.7 6.1 69% 76.63 1021.5
07 02:53 NW 11 16.09 Overcast OVC038 12.2 6.7 69% 76.66 1021.8
07 01:53 NW 13 16.09 Overcast OVC038 12.8 7.2 69% 76.68 1022.2
07 00:53 NW 15 16.09 Overcast OVC034 13.3 7.2 67% 76.66 1022.0
06 23:53 NW 9 16.09 Overcast OVC031 13.3 8.3 72% 76.66 1021.9
06 22:53 Vrbl 11 16.09 Overcast OVC036 13.3 8.3 18.3 13.3 72% 76.66 1022.0
06 21:53 N 9 16.09 Mostly Cloudy BKN039 13.3 8.3 72% 76.66 1022.0
06 20:53 N 13 G 30 16.09 Overcast OVC032 14.4 8.9 70% 76.63 1021.7
06 19:53 N 9 16.09 Overcast OVC035 15.6 9.4 67% 76.58 1020.8
06 18:53 N 13 16.09 Partly Cloudy SCT038 16.7 10 65% 76.56 1020.7
06 17:53 NW 13 16.09 Overcast OVC039 17.8 10.6 63% 76.56 1020.7
06 16:53 NW 15 16.09 Overcast BKN037 OVC046 18.9 10.6 20 14.4 59% 76.56 1020.5
06 15:53 NW 11 16.09 Overcast FEW030 OVC043 20 12.2 61% 76.56 1020.5
06 14:53 SW 7 16.09 Overcast OVC040 18.9 11.7 63% 76.58 1020.9
06 13:53 Calm 16.09 Overcast OVC036 17.8 11.1 65% 76.61 1021.3
06 12:53 Calm 16.09 Overcast FEW029 OVC035 17.2 11.7 70% 76.63 1021.5
06 11:53 W 6 16.09 Overcast OVC020 15 10.6 75% 76.63 1021.7
06 10:53 W 6 16.09 Overcast OVC017 15 10.6 15 13.3 75% 76.63 1021.5
06 09:53 Calm 16.09 Overcast OVC018 14.4 10 75% 76.61 1021.3
06 08:53 Calm 16.09 Overcast OVC016 13.9 10 78% 76.58 1021.1
06 07:53 NW 9 16.09 Overcast OVC018 13.3 9.4 77% 76.61 1021.3
06 06:53 Calm 16.09 Overcast BKN018 OVC023 13.3 10 81% 76.56 1020.4
06 05:53 N 7 16.09 Overcast SCT022 OVC038 13.3 10 81% 76.5 1019.9
06 04:53 NW 6 16.09 Overcast OVC037 13.9 10.6 16.1 13.9 81% 76.48 1019.7
06 03:53 Vrbl 7 16.09 Overcast OVC035 13.9 10 78% 76.45 1019.1
06 02:53 Calm 16.09 Overcast OVC035 13.9 10 78% 76.4 1018.5
06 01:53 Calm 16.09 Overcast OVC035 14.4 10 75% 76.38 1018.3
06 00:53 N 6 16.09 Overcast OVC033 15 10.6 75% 76.38 1018.1
05 23:53 N 7 16.09 Overcast OVC031 15 10.6 75% 76.33 1017.6
05 22:53 N 6 16.09 Overcast OVC030 16.1 11.1 18.3 12.8 72% 76.3 1017.3
05 21:53 Calm 16.09 Overcast OVC031 15 11.1 78% 76.28 1016.9
05 20:53 Calm 16.09 Fair CLR 13.9 10.6 81% 76.23 1016.2
05 19:53 Calm 16.09 Fair CLR 17.2 10.6 65% 76.17 1015.7
05 18:53 Calm 16.09 Mostly Cloudy BKN033 17.8 10.6 63% 76.17 1015.5
05 17:53 Calm 16.09 Mostly Cloudy BKN030 17.8 10.6 63% 76.17 1015.6
05 16:53 W 6 16.09 Overcast OVC033 17.8 11.1 17.8 13.9 65% 76.2 1016.0
05 15:53 Vrbl 7 16.09 Overcast OVC033 17.2 10.6 65% 76.25 1016.4
05 14:53 W 7 16.09 Overcast OVC031 16.7 11.1 70% 76.25 1016.7
05 13:53 W 7 16.09 Overcast OVC024 16.1 10.6 70% 76.28 1017.0
05 12:53 Calm 16.09 Overcast OVC024 15.6 10.6 72% 76.3 1017.3
05 11:53 Calm 16.09 Overcast OVC025 15 10.6 75% 76.3 1017.3
05 10:53 Calm 16.09 Overcast FEW017 OVC025 13.9 11.1 13.9 12.2 83% 76.3 1017.3
05 09:53 Calm 16.09 Overcast SCT008 BKN012 OVC021 12.8 11.7 93% 76.28 1017.0
05 08:53 S 7 4.02 Fog/Mist BKN005 OVC014 12.2 11.7 97% 76.28 1016.7
05 07:53 Calm 4.83 Fog/Mist OVC007 12.2 11.7 97% 76.25 1016.5
05 06:53 Calm 11.27 Overcast OVC007 12.2 11.1 93% 76.2 1016.0
05 05:53 Calm 16.09 Overcast OVC010 12.2 11.1 93% 76.17 1015.6
05 04:53 NE 6 16.09 Overcast OVC011 12.8 10.6 15.6 12.8 87% 76.17 1015.5
05 03:53 Calm 16.09 Overcast OVC015 13.3 10 81% 76.15 1015.2
05 02:53 N 6 16.09 Overcast OVC016 13.3 10 81% 76.12 1015.0
05 01:53 Vrbl 6 16.09 Overcast OVC020 13.3 10 81% 76.1 1014.5
05 00:53 NE 7 16.09 Mostly Cloudy BKN040 13.3 10 81% 76.07 1014.3
04 23:53 NW 9 16.09 Mostly Cloudy BKN041 14.4 10.6 78% 76.02 1013.6
04 22:53 NW 9 16.09 Mostly Cloudy BKN043 15.6 10.6 24.4 15.6 72% 75.97 1012.8
04 21:53 NW 9 16.09 Overcast OVC043 17.8 11.1 65% 75.92 1012.3
04 20:53 N 13 16.09 Mostly Cloudy BKN040 19.4 11.1 59% 75.87 1011.3
04 19:53 S 9 16.09 Overcast OVC046 22.2 13.9 59% 75.77 1010.2
04 18:53 SE 9 16.09 Fair CLR 23.3 13.9 56% 75.77 1010.0
04 17:53 Calm 16.09 Fair CLR 24.4 12.8 48% 26 75.79 1010.3
04 16:53 Calm 16.09 Fair CLR 23.3 12.2 23.3 16.1 50% 75.82 1010.7
04 15:53 Calm 16.09 Fair CLR 22.8 11.7 50% 75.84 1011.2
04 14:53 S 11 16.09 Fair CLR 21.1 12.2 57% 75.92 1012.0
04 13:53 SE 13 16.09 Fair CLR 20 12.2 61% 75.97 1012.8
Date Time (pdt) Wind (kph) Vis. (km) Weather Sky Cond. Air Dwpt Max. Min. Relative Humidity Wind Chill (°C) Heat Index (°C) altimeter (cm) sea level (mb) 1 hr 3 hr 6 hr
6 hour
Temperature (ºC) Pressure Precipitation (cm)